VAM Template | Jonatha

Virtual Airlines Manager! A new look to your va. By: Jonatha Silva




 METAR ET TAF INFORMATION
METAR FOR LEZL
ADDS - METARS form results

(0828 UTC 08 July 2020)
Data provider http://aviationweather.gov/metar/data/
 
METAR text: LEZL 080800Z 20005KT 160V250 CAVOK 28/13 Q1012 NOSIG
Conditions at: LEZL (SEVILLA (CIV/MIL, ES) observed 0800 UTC 08 July 2020
Temperature: 28.0°C (82°F)
Dewpoint: 13.0°C (55°F) [RH = 40%]
Pressure (altimeter): 29.88 inches Hg (1012.0 mb)
Winds: from the SSW (200 degrees) at 6 MPH (5 knots; 2.6 m/s)
Visibility: 6 or more miles (10+ km)
Ceiling: ceiling and visibility are OK
Clouds: unknown
Weather: no significant weather observed at this time

METAR text: LEZL 080730Z 19005KT 150V240 CAVOK 27/14 Q1011 NOSIG
Conditions at: LEZL (SEVILLA (CIV/MIL, ES) observed 0730 UTC 08 July 2020
Temperature: 27.0°C (81°F)
Dewpoint: 14.0°C (57°F) [RH = 45%]
Pressure (altimeter): 29.85 inches Hg (1011.0 mb)
Winds: from the S (190 degrees) at 6 MPH (5 knots; 2.6 m/s)
Visibility: 6 or more miles (10+ km)
Ceiling: ceiling and visibility are OK
Clouds: unknown
Weather: no significant weather observed at this time

Forecast for: LEZL (SEVILLA (CIV/MIL, ES)
Text: TAF LEZL 080800Z 0809/0909 22009KT CAVOK TX38/0815Z TN21/0905Z
Forecast period: 0900 UTC 08 July 2020 to 0900 UTC 09 July 2020
Forecast type: FROM: standard forecast or significant change
Winds: from the SW (220 degrees) at 10 MPH (9 knots; 4.6 m/s)
Visibility: 6 or more miles 10+ km)
Ceiling: unknown
Clouds: missing
Weather: no significant weather forecast for this period

 AÉROPORT DE AÉROPORT

 INFORMATIONS DE PISTE
Piste 09 Longueur de la piste 11024 ft Largeur de la piste 148 ft
Élévation de la piste 83 ft Seuil de la piste déplacés 0 ft Runway heading 90
Piste 27 Longueur de la piste 11024 ft Largeur de la piste 148 ft
Élévation de la piste 111 ft Seuil de la piste déplacés 0 ft Runway heading 270

 AÉROPORT FRÉQUENCES
Type APP Nom APP Féquence 120 MHZ
Type ATIS Nom ATIS Féquence 118.175 MHZ
Type GND Nom GND Féquence 121.7 MHZ
Type TWR Nom TWR Féquence 118.1 MHZ

 SIDA DE NAVIGATION
Type NDB Nom Sevilla Féquence 420 KHZ
Type VOR-DME Nom Sevilla Féquence 113700 KHZ